Time;durP1;ratioP1;P1;durP2;ratioP2;P2;SDS_P1;SDS_P2;PMS_P1;PMS_P2;Temp;Humidity;BMP_temperature;BMP_pressure;BME280_temperature;BME280_humidity;BME280_pressure;Samples;Min_cycle;Max_cycle;Signal;HPM_P1;HPM_P2
2023/04/02 00:00:10;;;;;;;4.63;4.35;;;;;;;7.44;100.00;100280.38;6139999;23;20131;-75
2023/04/02 00:02:55;;;;;;;5.68;5.30;;;;;;;5.82;100.00;100027.72;6148345;23;20029;-76
2023/04/02 00:05:29;;;;;;;5.80;5.30;;;;;;;7.35;100.00;100296.47;6145340;23;20096;-76
2023/04/02 00:08:18;;;;;;;5.35;4.95;;;;;;;7.37;100.00;100307.69;6168308;23;20566;-76
2023/04/02 00:10:48;;;;;;;4.93;4.53;;;;;;;6.14;100.00;100125.31;6163058;23;20028;-75
2023/04/02 00:13:14;;;;;;;6.05;5.22;;;;;;;7.26;100.00;100308.16;6139264;23;20118;-76
2023/04/02 00:15:45;;;;;;;4.53;4.25;;;;;;;7.26;100.00;100317.78;6110831;23;20031;-76
2023/04/02 00:18:20;;;;;;;5.45;5.13;;;;;;;7.04;100.00;100297.84;6167192;23;20028;-76
2023/04/02 00:21:25;;;;;;;4.63;4.32;;;;;;;7.21;100.00;100319.72;6134618;23;20025;-76
2023/04/02 00:23:54;;;;;;;4.65;4.35;;;;;;;7.22;100.00;100331.84;6133089;23;20130;-76
2023/04/02 00:26:33;;;;;;;3.85;3.65;;;;;;;7.24;100.00;100330.88;6140236;23;20212;-76
2023/04/02 00:29:02;;;;;;;4.65;4.35;;;;;;;6.91;100.00;100291.44;6152151;23;20672;-76
2023/04/02 00:31:30;;;;;;;4.88;4.57;;;;;;;7.01;100.00;100316.22;6178741;23;20320;-77
2023/04/02 00:33:59;;;;;;;4.32;4.03;;;;;;;6.31;100.00;100205.38;6149668;23;20027;-77
2023/04/02 00:36:29;;;;;;;4.40;4.20;;;;;;;7.23;100.00;100354.44;6150536;23;20016;-77
2023/04/02 00:38:58;;;;;;;4.00;3.80;;;;;;;6.68;100.00;100268.97;6142377;23;20376;-77
2023/04/02 00:41:28;;;;;;;4.65;4.25;;;;;;;6.52;100.00;100259.19;6144173;23;20672;-76
2023/04/02 00:43:57;;;;;;;4.32;4.13;;;;;;;7.17;100.00;100368.59;6169440;23;20025;-77
2023/04/02 00:46:49;;;;;;;4.22;4.03;;;;;;;6.65;100.00;100297.78;6138261;23;20030;-77
2023/04/02 00:49:22;;;;;;;5.05;4.50;;;;;;;6.87;100.00;100332.47;6142173;23;20041;-76
2023/04/02 00:51:55;;;;;;;3.80;3.60;;;;;;;7.15;100.00;100380.84;6168034;23;20023;-75
2023/04/02 00:54:24;;;;;;;3.90;3.70;;;;;;;7.03;100.00;100379.63;6165868;23;20025;-75
2023/04/02 00:56:54;;;;;;;4.70;4.47;;;;;;;7.10;100.00;100390.66;6132965;23;20478;-76
2023/04/02 00:59:31;;;;;;;3.88;3.67;;;;;;;7.09;100.00;100400.22;6168981;23;20039;-76
2023/04/02 01:02:13;;;;;;;4.00;3.80;;;;;;;7.09;100.00;100400.22;6118019;23;20518;-75
2023/04/02 01:04:40;;;;;;;4.65;4.35;;;;;;;6.42;100.00;100327.44;6165144;23;20020;-76
2023/04/02 01:07:11;;;;;;;4.28;4.07;;;;;;;6.84;100.00;100421.28;6138393;23;20022;-75
2023/04/02 01:10:12;;;;;;;4.50;4.30;;;;;;;6.80;100.00;100435.38;6168847;23;20052;-76
2023/04/02 01:12:45;;;;;;;4.78;4.47;;;;;;;6.63;100.00;100406.50;6165201;23;20513;-77
2023/04/02 01:15:14;;;;;;;5.25;4.82;;;;;;;6.76;100.00;100434.63;6144107;23;20430;-75
2023/04/02 01:17:47;;;;;;;4.72;4.43;;;;;;;6.37;100.00;100383.22;6142057;23;20029;-77
2023/04/02 01:20:35;;;;;;;4.65;4.35;;;;;;;6.72;100.00;100446.09;6144094;23;20041;-78
2023/04/02 01:23:10;;;;;;;4.50;4.20;;;;;;;5.65;100.00;100273.13;6166919;23;20020;-76
2023/04/02 01:25:46;;;;;;;6.30;5.80;;;;;;;5.96;100.00;100336.16;6169786;23;20024;-77
2023/04/02 01:28:25;;;;;;;4.20;4.00;;;;;;;6.32;100.00;100398.16;6146939;23;20183;-76
2023/04/02 01:30:55;;;;;;;6.00;5.40;;;;;;;6.32;100.00;100426.00;6165933;23;20077;-78
2023/04/02 01:33:29;;;;;;;4.55;4.15;;;;;;;5.80;100.00;100311.59;6144478;23;20033;-76
2023/04/02 01:36:10;;;;;;;4.50;4.20;;;;;;;6.39;100.00;100425.69;6141357;23;20525;-77
2023/04/02 01:38:45;;;;;;;5.82;5.43;;;;;;;6.63;100.00;100469.94;6166458;23;20536;-76
2023/04/02 01:41:32;;;;;;;4.63;4.22;;;;;;;5.86;100.00;100347.81;6137339;23;20070;-77
2023/04/02 01:44:10;;;;;;;5.15;4.82;;;;;;;6.03;100.00;100383.66;6141868;23;20017;-77
2023/04/02 01:46:41;;;;;;;4.70;4.40;;;;;;;5.88;100.00;100361.63;6161853;23;20024;-76
2023/04/02 01:49:13;;;;;;;4.88;4.57;;;;;;;6.30;100.00;100446.88;6131834;23;20021;-76
2023/04/02 01:51:49;;;;;;;4.97;4.53;;;;;;;6.04;100.00;100424.44;6167944;23;20555;-76
2023/04/02 01:54:16;;;;;;;4.43;4.13;;;;;;;6.48;100.00;100502.69;6142250;23;20043;-76
2023/04/02 01:56:45;;;;;;;5.25;4.85;;;;;;;6.47;100.00;100513.16;6112126;23;20015;-76
2023/04/02 01:59:15;;;;;;;5.80;5.35;;;;;;;6.38;100.00;100496.97;6132723;23;20053;-75
2023/04/02 02:01:51;;;;;;;5.30;4.90;;;;;;;6.52;100.00;100514.69;6161036;23;20017;-76
2023/04/02 02:04:18;;;;;;;4.97;4.57;;;;;;;5.57;100.00;100373.19;6116881;23;20021;-76
2023/04/02 02:06:45;;;;;;;6.40;5.55;;;;;;;6.01;100.00;100465.38;6132876;23;20052;-76
2023/04/02 02:09:20;;;;;;;5.32;4.88;;;;;;;6.45;100.00;100528.84;6169977;23;20397;-76
2023/04/02 02:11:47;;;;;;;4.90;4.50;;;;;;;6.26;100.00;100512.22;6166735;23;20017;-75
2023/04/02 02:14:20;;;;;;;4.13;3.85;;;;;;;6.21;100.00;100504.56;6107119;23;20031;-76
2023/04/02 02:16:48;;;;;;;5.70;5.15;;;;;;;6.36;100.00;100540.47;6173017;23;20020;-77
2023/04/02 02:19:37;;;;;;;5.15;4.75;;;;;;;6.08;100.00;100498.13;6159178;23;20039;-75
2023/04/02 02:22:37;;;;;;;5.50;5.00;;;;;;;5.89;100.00;100477.91;6115726;23;20013;-76
2023/04/02 02:25:25;;;;;;;4.80;4.40;;;;;;;6.26;100.00;100569.56;6112511;23;20020;-77
2023/04/02 02:28:14;;;;;;;4.28;4.05;;;;;;;6.24;100.00;100567.00;6139497;23;20036;-76
2023/04/02 02:30:54;;;;;;;5.90;5.40;;;;;;;6.18;100.00;100577.66;6140771;23;20740;-74
2023/04/02 02:33:33;;;;;;;6.20;5.63;;;;;;;6.18;100.00;100577.66;6134333;23;20039;-75
2023/04/02 02:36:23;;;;;;;5.50;4.93;;;;;;;6.15;100.00;100582.94;6138139;23;20025;-78
2023/04/02 02:39:04;;;;;;;5.40;5.00;;;;;;;6.12;100.00;100609.13;6075719;23;20079;-75
2023/04/02 02:41:51;;;;;;;4.43;4.20;;;;;;;6.09;100.00;100589.22;6141405;23;20016;-77
2023/04/02 02:44:28;;;;;;;9.65;5.70;;;;;;;6.09;100.00;100599.66;6134669;23;20056;-75
2023/04/02 02:47:05;;;;;;;6.10;5.55;;;;;;;6.09;100.00;100598.81;6143359;23;20075;-77
2023/04/02 02:49:45;;;;;;;5.13;4.70;;;;;;;5.53;100.00;100522.59;6137592;23;20132;-76
2023/04/02 02:52:15;;;;;;;4.22;4.03;;;;;;;5.42;100.00;100500.41;6127837;23;20078;-75
2023/04/02 02:54:47;;;;;;;4.35;4.10;;;;;;;5.62;100.00;100564.81;6111115;23;20101;-76
2023/04/02 02:57:37;;;;;;;4.18;3.97;;;;;;;5.65;100.00;100552.53;6143596;23;20025;-75
2023/04/02 03:00:08;;;;;;;4.63;4.30;;;;;;;6.02;100.00;100623.38;6139963;23;20029;-76
2023/04/02 03:02:38;;;;;;;4.05;3.75;;;;;;;5.95;100.00;100627.94;6169970;23;20336;-77
2023/04/02 03:05:06;;;;;;;4.35;4.05;;;;;;;5.45;100.00;100540.19;6139228;23;20029;-77
2023/04/02 03:07:33;;;;;;;4.22;4.03;;;;;;;4.69;100.00;100416.97;6157691;23;20020;-75
2023/04/02 03:10:16;;;;;;;4.72;4.43;;;;;;;5.62;100.00;100624.69;6141960;23;20040;-77
2023/04/02 03:13:07;;;;;;;4.43;4.22;;;;;;;5.92;100.00;100652.31;6140112;23;20036;-76
2023/04/02 03:15:46;;;;;;;4.55;4.13;;;;;;;5.92;100.00;100652.31;6131857;23;20589;-76
2023/04/02 03:18:24;;;;;;;4.38;4.07;;;;;;;5.48;100.00;100601.72;6151878;23;20070;-76
2023/04/02 03:20:57;;;;;;;4.20;4.00;;;;;;;5.56;100.00;100613.56;6137180;23;20434;-75
2023/04/02 03:23:31;;;;;;;4.50;4.30;;;;;;;5.46;100.00;100625.19;6166632;23;20078;-75
2023/04/02 03:26:05;;;;;;;4.45;4.15;;;;;;;5.50;100.00;100638.94;6140421;23;20028;-77
2023/04/02 03:28:37;;;;;;;4.05;3.75;;;;;;;5.07;100.00;100575.25;6140225;23;20025;-77
2023/04/02 03:31:13;;;;;;;3.83;3.63;;;;;;;4.92;100.00;100558.38;6164827;23;20092;-76
2023/04/02 03:33:48;;;;;;;4.15;3.90;;;;;;;5.74;100.00;100703.25;6140859;23;20040;-75
2023/04/02 03:36:37;;;;;;;3.80;3.60;;;;;;;5.74;100.00;100713.66;6161987;23;20021;-75
2023/04/02 03:39:16;;;;;;;3.92;3.72;;;;;;;5.72;100.00;100717.22;6141728;23;20450;-76
2023/04/02 03:41:49;;;;;;;3.78;3.58;;;;;;;4.92;100.00;100582.63;6139323;23;20021;-75
2023/04/02 03:44:27;;;;;;;4.03;3.83;;;;;;;5.60;100.00;100714.09;6178640;23;20023;-75
2023/04/02 03:46:58;;;;;;;3.42;3.33;;;;;;;5.71;100.00;100721.59;6137027;23;20032;-77
2023/04/02 03:49:35;;;;;;;4.07;3.78;;;;;;;5.73;100.00;100718.91;6132977;23;20048;-74
2023/04/02 03:52:12;;;;;;;4.57;4.28;;;;;;;5.76;100.00;100732.69;6113333;23;20020;-76
2023/04/02 03:54:40;;;;;;;3.95;3.75;;;;;;;5.71;100.00;100749.34;6148307;23;20431;-76
2023/04/02 03:57:31;;;;;;;4.20;3.90;;;;;;;5.25;100.00;100681.38;6160048;23;20032;-77
2023/04/02 04:00:15;;;;;;;4.13;3.92;;;;;;;5.00;100.00;100661.28;6115160;23;20157;-75
2023/04/02 04:02:46;;;;;;;4.85;3.90;;;;;;;5.04;100.00;100674.19;6139788;23;20024;-74
2023/04/02 04:05:21;;;;;;;4.30;4.03;;;;;;;4.98;100.00;100670.03;6135455;23;20110;-75
2023/04/02 04:07:52;;;;;;;4.30;4.10;;;;;;;5.58;100.00;100773.16;6169440;23;20116;-76
2023/04/02 04:10:24;;;;;;;4.43;4.13;;;;;;;5.43;100.00;100749.34;6171002;23;20495;-77
2023/04/02 04:12:53;;;;;;;;;;;;;;;5.53;100.00;100784.59;6138907;23;20081;-74
2023/04/02 04:15:28;;;;;;;4.00;3.80;;;;;;;4.84;100.00;100675.63;6165755;23;20100;-74
2023/04/02 04:17:55;;;;;;;4.40;4.20;;;;;;;5.49;100.00;100780.41;6127880;23;20111;-75
2023/04/02 04:20:39;;;;;;;4.30;4.05;;;;;;;4.80;100.00;100687.84;6155689;23;20038;-76
2023/04/02 04:23:18;;;;;;;3.85;3.65;;;;;;;5.46;100.00;100796.97;6126772;23;20017;-75
2023/04/02 04:25:48;;;;;;;5.00;4.70;;;;;;;4.60;100.00;100667.63;6176124;23;20035;-76
2023/04/02 04:28:37;;;;;;;4.85;4.55;;;;;;;5.05;100.00;100766.91;6174297;23;20042;-75
2023/04/02 04:31:26;;;;;;;4.75;4.45;;;;;;;5.32;100.00;100820.78;6171325;23;20029;-76
2023/04/02 04:34:03;;;;;;;5.03;4.63;;;;;;;3.95;100.00;100595.78;6134109;23;20273;-75
2023/04/02 04:36:54;;;;;;;4.53;4.22;;;;;;;4.78;100.00;100757.25;6161474;23;20068;-77
2023/04/02 04:39:41;;;;;;;4.10;3.90;;;;;;;4.77;100.00;100783.28;6136192;23;20075;-76
2023/04/02 04:42:18;;;;;;;4.45;4.13;;;;;;;5.24;100.00;100848.78;6162461;23;20029;-76
2023/04/02 04:44:59;;;;;;;4.05;3.78;;;;;;;5.24;100.00;100858.34;6110762;23;20134;-76
2023/04/02 04:47:34;;;;;;;4.07;3.88;;;;;;;5.16;100.00;100877.59;6160570;23;20066;-75
2023/04/02 04:50:12;;;;;;;4.20;4.00;;;;;;;5.18;100.00;100865.41;6152357;23;20173;-75
2023/04/02 04:52:42;;;;;;;4.68;4.38;;;;;;;4.55;100.00;100767.41;6136464;23;20039;-76
2023/04/02 04:55:28;;;;;;;5.13;4.72;;;;;;;4.71;100.00;100810.31;6130898;23;20261;-76
2023/04/02 04:58:00;;;;;;;3.90;3.63;;;;;;;5.13;100.00;100879.41;6159397;23;20121;-75
2023/04/02 05:00:49;;;;;;;5.05;4.65;;;;;;;5.13;100.00;100892.44;6162559;23;20079;-74
2023/04/02 05:03:45;;;;;;;4.68;4.38;;;;;;;3.84;100.00;100691.25;6130644;23;20310;-75
2023/04/02 05:06:33;;;;;;;4.30;4.07;;;;;;;5.08;100.00;100896.91;6144458;23;20012;-76
2023/04/02 05:09:11;;;;;;;3.80;3.50;;;;;;;5.12;100.00;100901.97;6101010;23;20017;-76
2023/04/02 05:11:51;;;;;;;4.78;4.47;;;;;;;4.76;100.00;100849.19;6156018;23;20017;-75
2023/04/02 05:14:30;;;;;;;4.55;4.30;;;;;;;4.66;100.00;100860.72;6139033;23;20017;-75
2023/04/02 05:17:09;;;;;;;4.05;3.85;;;;;;;5.07;100.00;100919.47;6140851;23;20018;-77
2023/04/02 05:19:59;;;;;;;4.13;3.92;;;;;;;4.31;100.00;100813.03;6133677;23;20045;-76
2023/04/02 05:22:41;;;;;;;3.97;3.78;;;;;;;4.76;100.00;100878.63;6131540;23;20068;-78
2023/04/02 05:25:19;;;;;;;4.15;3.95;;;;;;;4.95;100.00;100919.75;6141875;23;20092;-75
2023/04/02 05:28:03;;;;;;;8.10;4.07;;;;;;;4.45;100.00;100823.97;6163688;23;20221;-74
2023/04/02 05:30:32;;;;;;;4.28;3.97;;;;;;;5.03;100.00;100943.81;6132116;23;20094;-74
2023/04/02 05:33:03;;;;;;;4.45;4.15;;;;;;;5.08;100.00;100943.72;6159004;23;20056;-75
2023/04/02 05:35:40;;;;;;;4.32;4.03;;;;;;;4.85;100.00;100919.16;6134124;23;20347;-74
2023/04/02 05:38:06;;;;;;;4.88;4.47;;;;;;;4.71;100.00;100922.09;6164510;23;20012;-75
2023/04/02 05:40:45;;;;;;;10.30;5.70;;;;;;;4.90;100.00;100971.91;6116175;23;20108;-74
2023/04/02 05:43:17;;;;;;;4.65;4.32;;;;;;;4.71;100.00;100945.50;6158205;23;20278;-73
2023/04/02 05:45:52;;;;;;;8.93;5.50;;;;;;;4.73;100.00;100969.72;6148964;23;20034;-74
2023/04/02 05:48:25;;;;;;;5.80;5.20;;;;;;;4.81;100.00;100995.50;6129742;23;20107;-74
2023/04/02 05:50:54;;;;;;;4.85;4.53;;;;;;;4.40;100.00;100946.19;6162317;23;20027;-73
2023/04/02 05:53:30;;;;;;;6.10;5.60;;;;;;;4.00;100.00;100900.31;6133853;23;20462;-73
2023/04/02 05:56:04;;;;;;;4.90;4.60;;;;;;;4.45;100.00;100985.09;6161829;23;20021;-74
2023/04/02 05:58:40;;;;;;;4.18;3.92;;;;;;;4.29;100.00;100957.72;6127649;23;20036;-72
2023/04/02 06:01:17;;;;;;;6.35;5.85;;;;;;;4.73;100.00;101029.50;6132320;23;20089;-74
2023/04/02 06:03:54;;;;;;;9.60;6.72;;;;;;;4.39;100.00;100993.03;6132689;23;20439;-73
2023/04/02 06:06:44;;;;;;;5.00;4.60;;;;;;;4.58;100.00;101024.66;6158018;23;20028;-75
2023/04/02 06:09:19;;;;;;;5.10;4.63;;;;;;;4.63;100.00;101048.81;6125972;23;20035;-74
2023/04/02 06:11:51;;;;;;;7.82;5.03;;;;;;;4.62;100.00;101051.44;6132617;23;20032;-75
2023/04/02 06:14:20;;;;;;;6.43;5.95;;;;;;;4.12;100.00;100976.28;6162923;23;20031;-74
2023/04/02 06:16:46;;;;;;;5.22;4.82;;;;;;;4.57;100.00;101062.78;6154546;23;20021;-74
2023/04/02 06:19:25;;;;;;;6.47;5.97;;;;;;;4.30;100.00;101030.44;6133026;23;20028;-75
2023/04/02 06:21:57;;;;;;;8.90;6.50;;;;;;;4.32;100.00;101046.00;6131185;23;20040;-75
2023/04/02 06:24:26;;;;;;;5.75;5.10;;;;;;;4.02;100.00;101006.75;6163221;23;20066;-75
2023/04/02 06:26:58;;;;;;;6.13;4.97;;;;;;;3.73;100.00;100976.19;6166725;23;20101;-75
2023/04/02 06:29:28;;;;;;;5.35;4.85;;;;;;;4.35;100.00;101079.69;6136855;23;20035;-74
2023/04/02 06:31:58;;;;;;;7.47;6.20;;;;;;;4.48;100.00;101093.31;6157834;23;20351;-75
2023/04/02 06:34:28;;;;;;;4.50;4.20;;;;;;;4.25;100.00;101047.88;6115753;23;20025;-76
2023/04/02 06:36:58;;;;;;;5.45;4.90;;;;;;;4.27;100.00;101082.47;6158593;23;20032;-74
2023/04/02 06:39:28;;;;;;;5.88;5.32;;;;;;;4.20;100.00;101060.09;6131117;23;20092;-75
2023/04/02 06:42:05;;;;;;;6.55;6.05;;;;;;;4.11;100.00;101045.56;6113375;23;20106;-74
2023/04/02 06:44:34;;;;;;;4.75;4.43;;;;;;;3.95;100.00;101055.38;6126220;23;20025;-75
2023/04/02 06:47:06;;;;;;;5.68;5.25;;;;;;;4.40;100.00;101104.69;6156473;23;20024;-75
2023/04/02 06:49:37;;;;;;;4.55;4.25;;;;;;;4.56;100.00;101128.66;6156038;23;20031;-75
2023/04/02 06:52:12;;;;;;;8.63;5.57;;;;;;;3.64;100.00;100994.53;6129469;23;20289;-75
2023/04/02 06:54:38;;;;;;;4.75;4.47;;;;;;;3.50;100.00;100959.31;6131972;23;20024;-74
2023/04/02 06:57:06;;;;;;;5.95;5.45;;;;;;;3.88;100.00;101048.56;6127386;23;20765;-75
2023/04/02 06:59:33;;;;;;;6.75;5.50;;;;;;;4.56;100.00;101149.44;6156639;23;20058;-74
2023/04/02 07:02:25;;;;;;;4.90;4.55;;;;;;;4.57;100.00;101158.97;6123122;23;20506;-75
2023/04/02 07:04:57;;;;;;;7.60;6.88;;;;;;;4.05;100.00;101081.16;6137453;23;20113;-75
2023/04/02 07:07:24;;;;;;;5.47;5.15;;;;;;;3.43;100.00;100993.16;6134560;23;20081;-75
2023/04/02 07:09:50;;;;;;;5.97;5.47;;;;;;;4.11;100.00;101101.81;6112396;23;20466;-76
2023/04/02 07:12:23;;;;;;;5.22;4.40;;;;;;;4.14;100.00;101093.97;6144979;23;20025;-76
2023/04/02 07:14:50;;;;;;;;;;;;;;;4.65;100.00;101176.13;6133022;23;20088;-75
2023/04/02 07:17:17;;;;;;;5.00;4.65;;;;;;;3.99;100.00;101084.75;6137917;23;19913;-75
2023/04/02 07:19:48;;;;;;;5.97;5.45;;;;;;;4.62;100.00;101200.44;6138117;23;20056;-75
2023/04/02 07:22:21;;;;;;;7.30;4.72;;;;;;;4.72;100.00;101201.97;6149177;23;20051;-75
2023/04/02 07:24:48;;;;;;;4.38;4.15;;;;;;;4.32;100.00;101150.78;6136377;23;20029;-75
2023/04/02 07:27:14;;;;;;;5.28;4.82;;;;;;;4.01;100.00;101111.53;6159003;23;20020;-75
2023/04/02 07:29:43;;;;;;;5.13;4.72;;;;;;;4.26;100.00;101142.25;6131526;23;20473;-76
2023/04/02 07:32:12;;;;;;;5.80;5.40;;;;;;;4.58;100.00;101219.59;6140943;23;20005;-75
2023/04/02 07:34:40;;;;;;;5.55;5.13;;;;;;;4.61;100.00;101222.16;6114016;23;20084;-76
2023/04/02 07:37:08;;;;;;;6.80;6.30;;;;;;;4.71;100.00;101228.00;6127694;23;20017;-76
2023/04/02 07:39:35;;;;;;;11.77;7.10;;;;;;;4.32;100.00;101175.91;6127875;23;20152;-75
2023/04/02 07:42:04;;;;;;;4.95;4.60;;;;;;;4.05;100.00;101128.78;6158962;23;20032;-75
2023/04/02 07:44:30;;;;;;;5.35;4.95;;;;;;;4.46;100.00;101186.03;6149627;23;20025;-76
2023/04/02 07:46:57;;;;;;;6.35;5.47;;;;;;;4.10;100.00;101132.13;6130451;23;20077;-75
2023/04/02 07:49:23;;;;;;;5.45;4.95;;;;;;;4.14;100.00;101166.72;6160355;23;20017;-75
2023/04/02 07:51:50;;;;;;;6.70;6.03;;;;;;;4.59;100.00;101249.88;6157211;23;20363;-77
2023/04/02 07:54:17;;;;;;;5.43;5.00;;;;;;;4.31;100.00;101205.34;6127600;23;20112;-76
2023/04/02 07:56:43;;;;;;;14.00;6.70;;;;;;;4.21;100.00;101186.50;6160314;23;20701;-75
2023/04/02 07:59:10;;;;;;;5.90;5.40;;;;;;;3.89;100.00;101167.16;6131129;23;20625;-75
2023/04/02 08:01:37;;;;;;;5.90;5.43;;;;;;;3.32;100.00;101060.81;6141210;23;20017;-76
2023/04/02 08:04:04;;;;;;;11.45;7.18;;;;;;;3.26;100.00;101047.94;6159287;23;20029;-73
2023/04/02 08:06:33;;;;;;;6.22;5.70;;;;;;;4.38;100.00;101222.56;6116716;23;20013;-76
2023/04/02 08:08:59;;;;;;;6.07;5.47;;;;;;;3.72;100.00;101125.03;6141520;23;20041;-75
2023/04/02 08:11:26;;;;;;;22.85;5.63;;;;;;;4.16;100.00;101220.34;6165758;23;20012;-76
2023/04/02 08:13:53;;;;;;;9.00;5.88;;;;;;;3.99;100.00;101184.28;6157374;23;20039;-75
2023/04/02 08:16:20;;;;;;;8.68;5.38;;;;;;;4.67;100.00;101299.16;6160824;23;20061;-75
2023/04/02 08:18:46;;;;;;;5.05;4.65;;;;;;;4.11;100.00;101250.75;6130319;23;20104;-76
2023/04/02 08:21:13;;;;;;;4.25;3.95;;;;;;;4.16;100.00;101245.47;6155137;23;20104;-75
2023/04/02 08:23:44;;;;;;;4.00;3.80;;;;;;;4.12;100.00;101228.22;6133081;23;20045;-75
2023/04/02 08:26:16;;;;;;;4.70;4.40;;;;;;;4.62;100.00;101326.97;6132488;23;20128;-75
2023/04/02 08:28:42;;;;;;;5.05;4.68;;;;;;;4.14;100.00;101252.44;6129691;23;20033;-75
2023/04/02 08:31:09;;;;;;;4.63;4.20;;;;;;;4.50;100.00;101313.31;6160063;23;20757;-76
2023/04/02 08:33:36;;;;;;;4.43;4.13;;;;;;;4.21;100.00;101285.22;6126075;23;20024;-76
2023/04/02 08:36:02;;;;;;;4.30;3.92;;;;;;;4.47;100.00;101346.28;6131086;23;20077;-76
2023/04/02 08:38:31;;;;;;;4.63;4.25;;;;;;;3.97;100.00;101308.09;6157331;23;20632;-74
2023/04/02 08:41:01;;;;;;;6.30;4.72;;;;;;;3.42;100.00;101184.31;6109038;23;20524;-75
2023/04/02 08:43:55;;;;;;;4.85;4.45;;;;;;;4.47;100.00;101346.28;6114302;23;20028;-75
2023/04/02 08:46:29;;;;;;;18.35;4.80;;;;;;;4.42;100.00;101364.56;6131275;23;20053;-74
2023/04/02 08:49:02;;;;;;;4.78;4.40;;;;;;;4.39;100.00;101370.66;6125924;23;20033;-74
2023/04/02 08:51:35;;;;;;;4.32;4.07;;;;;;;4.23;100.00;101325.03;6156063;23;20525;-77
2023/04/02 08:54:37;;;;;;;5.20;4.80;;;;;;;4.45;100.00;101358.44;6155233;23;20070;-75
2023/04/02 08:57:13;;;;;;;4.88;4.47;;;;;;;3.98;100.00;101277.78;6133786;23;20185;-75
2023/04/02 08:59:44;;;;;;;5.15;4.75;;;;;;;4.34;100.00;101349.06;6152796;23;20296;-75
2023/04/02 09:02:29;;;;;;;4.35;3.95;;;;;;;4.76;100.00;101396.06;6128671;23;20064;-76
2023/04/02 09:04:58;;;;;;;4.47;4.15;;;;;;;4.02;100.00;101276.00;6156995;23;20076;-75
2023/04/02 09:07:26;;;;;;;4.10;3.80;;;;;;;4.45;100.00;101345.44;6160450;23;20031;-74
2023/04/02 09:09:53;;;;;;;4.43;4.13;;;;;;;4.68;100.00;101395.31;6132044;23;20039;-76
2023/04/02 09:12:26;;;;;;;4.47;4.15;;;;;;;4.73;100.00;101390.03;6138898;23;20209;-75
2023/04/02 09:15:11;;;;;;;4.22;3.92;;;;;;;3.82;100.00;101219.19;6130156;23;20035;-75
2023/04/02 09:17:38;;;;;;;4.25;3.85;;;;;;;4.81;100.00;101406.38;6111289;23;20087;-75
2023/04/02 09:20:25;;;;;;;5.45;4.95;;;;;;;4.46;100.00;101342.84;6161325;23;20021;-76
2023/04/02 09:22:53;;;;;;;4.80;4.53;;;;;;;5.01;100.00;101413.81;6132177;23;20034;-75
2023/04/02 09:25:25;;;;;;;13.25;4.10;;;;;;;5.09;100.00;101424.09;6117304;23;20222;-75
2023/04/02 09:27:54;;;;;;;4.32;4.03;;;;;;;4.67;100.00;101330.34;6156837;23;20049;-76
2023/04/02 09:30:39;;;;;;;3.97;3.67;;;;;;;5.00;100.00;101420.78;6127863;23;20033;-74
2023/04/02 09:33:06;;;;;;;4.35;4.03;;;;;;;4.44;100.00;101356.75;6160149;23;20268;-76
2023/04/02 09:35:36;;;;;;;4.47;4.10;;;;;;;4.36;100.00;101326.53;6116291;23;20567;-74
2023/04/02 09:38:15;;;;;;;5.45;5.05;;;;;;;4.78;100.00;101417.69;6131330;23;20518;-74
2023/04/02 09:40:59;;;;;;;3.60;3.40;;;;;;;4.91;100.00;101425.28;6114157;23;20310;-77
2023/04/02 09:43:34;;;;;;;4.07;3.78;;;;;;;4.24;100.00;101326.72;6127159;23;20505;-74
2023/04/02 09:46:22;;;;;;;4.25;3.97;;;;;;;4.92;100.00;101445.22;6137663;23;20154;-76
2023/04/02 09:48:56;;;;;;;9.10;4.95;;;;;;;4.91;100.00;101446.97;6142204;23;20037;-75
2023/04/02 09:51:28;;;;;;;5.00;4.70;;;;;;;4.52;100.00;101389.50;6154071;23;20334;-74
2023/04/02 09:54:01;;;;;;;3.90;3.70;;;;;;;5.10;100.00;101462.25;6097530;23;20048;-74
2023/04/02 09:56:34;;;;;;;;;;;;;;;5.19;100.00;101473.38;6111171;23;20444;-75
2023/04/02 09:59:17;;;;;;;4.20;3.92;;;;;;;5.14;100.00;101462.16;6121863;23;19913;-75
2023/04/02 10:01:49;;;;;;;3.85;3.65;;;;;;;4.77;100.00;101392.59;6136679;23;20086;-75
2023/04/02 10:04:35;;;;;;;4.18;3.63;;;;;;;5.20;100.00;101463.81;6131022;23;20017;-75
2023/04/02 10:07:05;;;;;;;3.33;3.22;;;;;;;5.01;100.00;101445.03;6151980;23;20335;-74
2023/04/02 10:09:34;;;;;;;4.75;4.35;;;;;;;5.03;100.00;101460.63;6156718;23;20033;-75
2023/04/02 10:12:03;;;;;;;4.22;3.92;;;;;;;4.69;100.00;101423.06;6103315;23;20238;-74
2023/04/02 10:14:37;;;;;;;4.28;3.97;;;;;;;4.98;100.00;101478.94;6131568;23;20088;-75
2023/04/02 10:17:13;;;;;;;4.32;3.97;;;;;;;4.58;100.00;101419.75;6138102;23;20021;-74
2023/04/02 10:19:44;;;;;;;4.40;4.20;;;;;;;5.07;100.00;101486.59;6135077;23;20372;-75
2023/04/02 10:22:14;;;;;;;3.67;3.50;;;;;;;5.13;100.00;101485.59;6130992;23;20471;-75
2023/04/02 10:24:41;;;;;;;3.90;3.65;;;;;;;4.17;100.00;101348.50;6128449;23;20024;-75
2023/04/02 10:27:21;;;;;;;5.53;4.20;;;;;;;4.52;100.00;101383.47;6130713;23;20517;-76
2023/04/02 10:30:01;;;;;;;3.97;3.72;;;;;;;5.19;100.00;101494.19;6136394;23;20979;-76
2023/04/02 10:32:43;;;;;;;4.25;3.85;;;;;;;5.27;100.00;101487.97;6130456;23;20033;-75
2023/04/02 10:35:22;;;;;;;6.28;3.70;;;;;;;5.37;100.00;101500.81;6161795;23;20392;-75
2023/04/02 10:38:23;;;;;;;3.80;3.55;;;;;;;5.48;100.00;101498.00;6143062;23;20068;-75
2023/04/02 10:41:10;;;;;;;3.92;3.72;;;;;;;5.08;100.00;101431.06;6131274;23;20392;-75
2023/04/02 10:43:42;;;;;;;4.20;3.90;;;;;;;5.58;100.00;101498.69;6168489;23;20016;-74
2023/04/02 10:46:30;;;;;;;3.78;3.58;;;;;;;5.70;100.00;101502.81;6158084;23;20064;-75
2023/04/02 10:49:11;;;;;;;4.00;3.80;;;;;;;5.74;100.00;101494.06;6136422;23;20025;-75
2023/04/02 10:51:48;;;;;;;4.23;3.93;;;;;;;4.59;100.00;101330.47;6139342;23;20552;-74
2023/04/02 10:54:33;;;;;;;3.60;3.40;;;;;;;4.74;100.00;101318.97;6140346;23;20033;-74
2023/04/02 10:57:08;;;;;;;3.72;3.53;;;;;;;5.90;100.00;101510.25;6167206;23;20024;-75
2023/04/02 10:59:41;;;;;;;4.10;3.90;;;;;;;5.88;99.69;101499.00;6159147;23;20031;-74
2023/04/02 11:02:52;;;;;;;3.85;3.65;;;;;;;5.94;99.26;101506.69;6125223;23;20013;-74
2023/04/02 11:05:42;;;;;;;3.42;3.33;;;;;;;6.11;97.93;101516.81;6134733;23;20024;-75
2023/04/02 11:08:20;;;;;;;4.22;3.92;;;;;;;6.01;97.55;101504.84;6156627;23;20552;-75
2023/04/02 11:10:51;;;;;;;3.78;3.58;;;;;;;6.09;97.07;101527.25;6129680;23;20478;-77
2023/04/02 11:13:43;;;;;;;3.90;3.70;;;;;;;5.52;97.22;101437.19;6105463;23;20263;-74
2023/04/02 11:16:16;;;;;;;4.00;3.75;;;;;;;5.72;96.51;101444.59;6157169;23;20117;-76
2023/04/02 11:19:15;;;;;;;3.83;3.63;;;;;;;5.63;95.01;101455.19;6133981;23;20029;-75
2023/04/02 11:21:54;;;;;;;4.03;3.60;;;;;;;5.72;96.21;101493.25;6139240;23;20013;-74
2023/04/02 11:24:28;;;;;;;4.28;4.07;;;;;;;5.91;97.56;101514.56;6145551;23;20156;-75
2023/04/02 11:27:23;;;;;;;4.05;3.85;;;;;;;5.82;96.82;101512.16;6134534;23;20061;-75
2023/04/02 11:29:56;;;;;;;4.75;4.38;;;;;;;5.50;97.06;101438.09;6143139;23;20027;-74
2023/04/02 11:32:23;;;;;;;3.70;3.50;;;;;;;5.93;96.22;101520.59;6109318;23;20480;-75
2023/04/02 11:34:50;;;;;;;4.00;3.80;;;;;;;5.75;96.47;101527.03;6136095;23;20023;-75
2023/04/02 11:37:43;;;;;;;3.70;3.50;;;;;;;5.44;98.45;101467.72;6112643;23;20025;-74
2023/04/02 11:40:10;;;;;;;4.03;3.70;;;;;;;6.15;97.59;101545.41;6144269;23;20462;-75
2023/04/02 11:42:41;;;;;;;7.32;3.70;;;;;;;5.93;96.40;101513.66;6134333;23;20478;-75
2023/04/02 11:45:28;;;;;;;3.88;3.67;;;;;;;5.60;95.35;101460.47;6124565;23;20013;-74
2023/04/02 11:48:06;;;;;;;3.70;3.50;;;;;;;6.07;96.00;101522.97;6113601;23;20017;-74
2023/04/02 11:50:44;;;;;;;5.03;4.53;;;;;;;6.23;95.41;101539.16;6127112;23;20363;-74
2023/04/02 11:53:11;;;;;;;5.10;4.80;;;;;;;6.29;94.32;101526.84;6157961;23;20283;-74
2023/04/02 11:55:40;;;;;;;4.13;3.90;;;;;;;5.55;93.14;101437.13;6157276;23;20449;-74
2023/04/02 11:58:21;;;;;;;3.90;3.65;;;;;;;6.18;92.83;101526.22;6122964;23;20018;-73
2023/04/02 12:00:53;;;;;;;5.07;4.68;;;;;;;5.46;92.04;101406.06;6163992;23;20462;-74
2023/04/02 12:03:36;;;;;;;4.30;3.97;;;;;;;6.27;92.41;101525.16;6130127;23;20537;-74